Time;durP1;ratioP1;P1;durP2;ratioP2;P2;SDS_P1;SDS_P2;PMS_P1;PMS_P2;Temp;Humidity;BMP_temperature;BMP_pressure;BME280_temperature;BME280_humidity;BME280_pressure;Samples;Min_cycle;Max_cycle;Signal;HPM_P1;HPM_P2
2022/10/14 00:00:17;;;;;;;0.75;0.75;;;10.00;99.90;;;;;;5048917;28;20497;-84
2022/10/14 00:02:43;;;;;;;0.50;0.50;;;9.90;99.90;;;;;;5057051;28;20036;-83
2022/10/14 00:05:09;;;;;;;0.43;0.43;;;10.00;99.90;;;;;;5068164;28;20483;-86
2022/10/14 00:07:38;;;;;;;0.57;0.55;;;10.10;99.90;;;;;;5053175;28;20044;-84
2022/10/14 00:10:05;;;;;;;0.40;0.40;;;10.40;99.90;;;;;;5062519;28;20044;-84
2022/10/14 00:12:32;;;;;;;1.05;1.05;;;10.50;99.90;;;;;;5062993;28;20123;-85
2022/10/14 00:14:58;;;;;;;0.38;0.38;;;10.70;99.90;;;;;;5062086;28;20054;-85
2022/10/14 00:17:25;;;;;;;0.60;0.60;;;10.80;99.90;;;;;;5065424;28;20127;-83
2022/10/14 00:19:51;;;;;;;3.10;1.77;;;10.80;99.90;;;;;;5057906;28;20036;-83
2022/10/14 00:22:17;;;;;;;0.65;0.65;;;10.90;99.90;;;;;;5054354;28;20032;-85
2022/10/14 00:24:42;;;;;;;0.88;0.88;;;11.00;99.90;;;;;;5043775;28;20045;-83
2022/10/14 00:27:08;;;;;;;0.40;0.40;;;11.00;99.90;;;;;;5042850;28;20498;-83
2022/10/14 00:29:34;;;;;;;0.80;0.80;;;10.90;99.90;;;;;;5049599;28;20049;-83
2022/10/14 00:32:00;;;;;;;1.33;1.23;;;10.90;99.90;;;;;;5048152;28;20128;-85
2022/10/14 00:34:26;;;;;;;0.70;0.65;;;10.80;99.90;;;;;;5063775;28;20147;-84
2022/10/14 00:36:54;;;;;;;0.40;0.40;;;10.80;99.90;;;;;;5090399;28;20052;-84
2022/10/14 00:39:20;;;;;;;0.52;0.52;;;10.70;99.90;;;;;;5083091;28;20040;-82
2022/10/14 00:41:46;;;;;;;1.00;1.00;;;10.70;99.90;;;;;;5077746;28;20043;-83
2022/10/14 00:44:11;;;;;;;0.95;0.95;;;10.60;99.90;;;;;;5068415;28;20181;-84
2022/10/14 00:46:40;;;;;;;0.65;0.65;;;10.60;99.90;;;;;;5075642;28;20052;-85
2022/10/14 00:49:17;;;;;;;1.02;1.02;;;10.60;99.90;;;;;;5059252;28;20048;-83
2022/10/14 00:51:47;;;;;;;1.05;1.02;;;10.50;99.90;;;;;;5088177;28;20048;-84
2022/10/14 00:54:16;;;;;;;0.30;0.30;;;10.50;99.90;;;;;;5074454;28;20048;-82
2022/10/14 00:56:44;;;;;;;0.50;0.50;;;10.50;99.90;;;;;;5075536;28;20394;-86
2022/10/14 00:59:11;;;;;;;0.43;0.43;;;10.50;99.90;;;;;;5080876;28;20044;-83
2022/10/14 01:01:37;;;;;;;0.50;0.50;;;10.50;99.90;;;;;;5051017;28;20036;-83
2022/10/14 01:04:02;;;;;;;0.60;0.60;;;10.50;99.90;;;;;;5053613;28;20094;-83
2022/10/14 01:06:40;;;;;;;0.25;0.25;;;10.50;99.90;;;;;;5058054;28;20507;-83
2022/10/14 01:09:06;;;;;;;0.40;0.40;;;10.40;99.90;;;;;;5084641;28;20175;-84
2022/10/14 01:11:47;;;;;;;0.50;0.50;;;10.40;99.90;;;;;;5091816;28;20124;-85
2022/10/14 01:14:43;;;;;;;0.65;0.65;;;10.40;99.90;;;;;;5088424;28;20051;-84
2022/10/14 01:17:16;;;;;;;0.30;0.30;;;10.30;99.90;;;;;;5076893;28;20130;-83
2022/10/14 01:20:00;;;;;;;0.50;0.50;;;10.30;99.90;;;;;;5077369;28;20051;-86
2022/10/14 01:22:34;;;;;;;1.15;1.15;;;10.30;99.90;;;;;;5075778;28;20037;-85
2022/10/14 01:25:33;;;;;;;1.88;1.45;;;10.30;99.90;;;;;;5063488;28;20032;-85
2022/10/14 01:28:26;;;;;;;0.70;0.70;;;10.20;99.90;;;;;;5053595;28;20044;-86
2022/10/14 01:31:00;;;;;;;0.50;0.50;;;10.20;99.90;;;;;;5083243;28;20044;-84
2022/10/14 01:33:34;;;;;;;0.40;0.40;;;10.10;99.90;;;;;;5090587;28;20048;-87
2022/10/14 01:36:28;;;;;;;0.30;0.30;;;10.10;99.90;;;;;;5074876;28;20048;-85
2022/10/14 01:39:17;;;;;;;0.50;0.50;;;10.10;99.90;;;;;;5086759;28;20114;-85
2022/10/14 01:41:48;;;;;;;0.40;0.40;;;10.10;99.90;;;;;;5068668;28;20067;-83
2022/10/14 01:44:17;;;;;;;0.40;0.40;;;10.00;99.90;;;;;;5059743;28;20093;-84
2022/10/14 01:46:49;;;;;;;0.40;0.40;;;9.90;99.90;;;;;;5068932;28;20079;-89
2022/10/14 01:49:38;;;;;;;0.40;0.40;;;10.00;99.90;;;;;;5069577;28;20039;-85
2022/10/14 01:52:29;;;;;;;0.40;0.40;;;9.90;99.90;;;;;;5079879;28;20040;-86
2022/10/14 01:54:59;;;;;;;0.40;0.40;;;9.90;99.90;;;;;;5085603;28;20036;-84
2022/10/14 01:57:32;;;;;;;0.40;0.40;;;9.90;99.90;;;;;;5088926;28;20559;-84
2022/10/14 01:59:59;;;;;;;0.60;0.60;;;9.90;99.90;;;;;;5098891;28;20043;-85
2022/10/14 02:02:25;;;;;;;0.40;0.40;;;9.90;99.90;;;;;;5080969;28;20124;-83
2022/10/14 02:04:51;;;;;;;;;;;9.80;99.90;;;;;;5069290;28;20032;-85
2022/10/14 02:07:35;;;;;;;0.90;0.90;;;9.80;99.90;;;;;;5062055;28;19923;-84
2022/10/14 02:10:45;;;;;;;0.52;0.45;;;9.80;99.90;;;;;;5069879;28;20070;-82
2022/10/14 02:13:17;;;;;;;0.50;0.50;;;9.80;99.90;;;;;;5034422;28;20048;-83
2022/10/14 02:15:56;;;;;;;0.40;0.40;;;9.80;99.90;;;;;;5067158;28;20047;-84
2022/10/14 02:18:37;;;;;;;0.47;0.47;;;9.80;99.90;;;;;;5087580;28;20079;-82
2022/10/14 02:21:21;;;;;;;0.45;0.45;;;10.30;99.90;;;;;;5071534;28;20043;-83
2022/10/14 02:23:54;;;;;;;0.50;0.50;;;9.80;99.90;;;;;;5086666;28;20046;-83
2022/10/14 02:26:21;;;;;;;0.60;0.60;;;9.80;99.90;;;;;;5077126;28;20048;-83
2022/10/14 02:28:47;;;;;;;0.32;0.32;;;9.80;99.90;;;;;;5087835;28;20393;-83
2022/10/14 02:31:16;;;;;;;0.43;0.43;;;9.80;99.90;;;;;;5059475;28;20040;-83
2022/10/14 02:33:47;;;;;;;0.40;0.40;;;9.80;99.90;;;;;;5067047;28;20138;-84
2022/10/14 02:36:16;;;;;;;0.40;0.40;;;9.80;99.90;;;;;;5087256;28;21195;-84
2022/10/14 02:38:44;;;;;;;1.30;1.02;;;9.80;99.90;;;;;;5061289;28;20044;-83
2022/10/14 02:41:16;;;;;;;0.43;0.43;;;9.70;99.90;;;;;;5063200;28;20051;-85
2022/10/14 02:43:44;;;;;;;0.60;0.60;;;9.80;99.90;;;;;;5073418;28;20036;-85
2022/10/14 02:46:10;;;;;;;0.60;0.60;;;9.70;99.90;;;;;;5094464;28;20043;-85
2022/10/14 02:48:35;;;;;;;;;;;9.70;99.90;;;;;;5079979;28;20044;-83
2022/10/14 02:51:01;;;;;;;0.32;0.32;;;9.70;99.90;;;;;;5068558;28;19923;-85
2022/10/14 02:53:27;;;;;;;0.40;0.40;;;9.80;99.90;;;;;;5066145;28;20344;-86
2022/10/14 02:55:52;;;;;;;0.45;0.45;;;9.70;99.90;;;;;;5089603;28;20079;-87
2022/10/14 02:58:18;;;;;;;0.50;0.50;;;9.80;99.90;;;;;;5072553;28;20492;-84
2022/10/14 03:00:44;;;;;;;0.40;0.40;;;9.70;99.90;;;;;;5066143;28;20486;-83
2022/10/14 03:03:10;;;;;;;0.50;0.50;;;9.70;99.90;;;;;;5091799;28;20057;-85
2022/10/14 03:05:36;;;;;;;0.20;0.20;;;9.70;99.90;;;;;;5090225;28;20044;-86
2022/10/14 03:08:02;;;;;;;0.40;0.40;;;9.70;99.90;;;;;;5094293;28;20040;-84
2022/10/14 03:10:28;;;;;;;0.30;0.30;;;9.70;99.90;;;;;;5073833;28;20048;-85
2022/10/14 03:12:54;;;;;;;0.50;0.50;;;9.70;99.90;;;;;;5062466;28;20131;-84
2022/10/14 03:15:19;;;;;;;0.38;0.38;;;9.70;99.90;;;;;;5096500;28;20071;-84
2022/10/14 03:17:45;;;;;;;0.50;0.50;;;9.70;99.90;;;;;;5088885;28;20512;-84
2022/10/14 03:20:11;;;;;;;0.65;0.65;;;9.70;99.90;;;;;;5096605;28;20043;-85
2022/10/14 03:22:36;;;;;;;0.50;0.50;;;9.70;99.90;;;;;;5068245;28;20082;-85
2022/10/14 03:25:03;;;;;;;0.50;0.50;;;9.70;99.90;;;;;;5076726;28;20093;-85
2022/10/14 03:27:28;;;;;;;0.80;0.80;;;9.60;99.90;;;;;;5063071;28;20475;-85
2022/10/14 03:29:54;;;;;;;0.50;0.50;;;9.60;99.90;;;;;;5095996;28;20079;-85
2022/10/14 03:32:20;;;;;;;0.50;0.50;;;9.60;99.90;;;;;;5077076;28;20063;-84
2022/10/14 03:34:45;;;;;;;0.52;0.52;;;9.60;99.90;;;;;;5070914;28;20066;-85
2022/10/14 03:37:11;;;;;;;0.40;0.40;;;9.70;99.90;;;;;;5075795;28;20044;-85
2022/10/14 03:39:37;;;;;;;0.40;0.40;;;9.60;99.90;;;;;;5070252;28;20075;-84
2022/10/14 03:42:05;;;;;;;0.50;0.50;;;9.60;99.90;;;;;;5094845;28;20378;-85
2022/10/14 03:44:30;;;;;;;0.43;0.43;;;9.60;99.90;;;;;;5073859;28;20378;-85
2022/10/14 03:46:56;;;;;;;0.50;0.50;;;9.60;99.90;;;;;;5045285;28;20047;-84
2022/10/14 03:49:22;;;;;;;0.50;0.50;;;9.60;99.90;;;;;;5077222;28;20070;-84
2022/10/14 03:51:48;;;;;;;0.50;0.50;;;9.60;99.90;;;;;;5079116;28;20074;-83
2022/10/14 03:54:13;;;;;;;0.50;0.50;;;9.70;99.90;;;;;;5090606;28;20139;-83
2022/10/14 03:56:40;;;;;;;0.60;0.60;;;9.60;99.90;;;;;;5059490;28;20047;-83
2022/10/14 03:59:06;;;;;;;0.40;0.40;;;9.60;99.90;;;;;;5090636;28;20481;-84
2022/10/14 04:01:32;;;;;;;0.38;0.38;;;9.60;99.90;;;;;;5067526;28;20036;-84
2022/10/14 04:03:58;;;;;;;0.70;0.70;;;9.60;99.90;;;;;;5043207;28;20063;-84
2022/10/14 04:06:23;;;;;;;0.50;0.50;;;9.60;99.90;;;;;;5068357;28;20040;-84
2022/10/14 04:08:49;;;;;;;0.40;0.40;;;9.60;99.90;;;;;;5048490;28;20127;-85
2022/10/14 04:11:16;;;;;;;0.40;0.40;;;9.60;99.90;;;;;;5089117;28;20473;-83
2022/10/14 04:13:42;;;;;;;0.50;0.50;;;9.60;99.90;;;;;;5069213;28;20543;-84
2022/10/14 04:16:09;;;;;;;0.30;0.30;;;9.70;99.90;;;;;;5088972;28;20116;-85
2022/10/14 04:18:35;;;;;;;0.50;0.50;;;9.70;99.90;;;;;;5073652;28;20044;-83
2022/10/14 04:21:10;;;;;;;0.30;0.30;;;9.70;99.90;;;;;;5096845;28;20036;-84
2022/10/14 04:23:36;;;;;;;0.60;0.60;;;9.70;99.90;;;;;;5092930;28;20082;-83
2022/10/14 04:26:04;;;;;;;0.40;0.40;;;9.70;99.90;;;;;;5065065;28;20041;-84
2022/10/14 04:28:30;;;;;;;0.40;0.40;;;9.70;99.90;;;;;;5088792;28;20036;-84
2022/10/14 04:31:02;;;;;;;0.93;0.93;;;9.80;99.90;;;;;;5107397;28;20054;-85
2022/10/14 04:33:28;;;;;;;0.40;0.40;;;9.80;99.90;;;;;;5076281;28;20052;-83
2022/10/14 04:35:58;;;;;;;0.38;0.38;;;9.80;99.90;;;;;;5069108;28;20066;-83
2022/10/14 04:38:24;;;;;;;0.40;0.40;;;9.80;99.90;;;;;;5078837;28;20096;-86
2022/10/14 04:40:51;;;;;;;0.43;0.43;;;9.90;99.90;;;;;;5092180;28;20040;-86
2022/10/14 04:43:17;;;;;;;0.50;0.50;;;10.00;99.90;;;;;;5062154;28;20397;-85
2022/10/14 04:45:43;;;;;;;0.75;0.73;;;10.00;99.90;;;;;;5088613;28;20039;-84
2022/10/14 04:48:08;;;;;;;0.40;0.40;;;9.90;99.90;;;;;;5061116;28;20040;-83
2022/10/14 04:50:34;;;;;;;0.70;0.70;;;9.90;99.90;;;;;;5081243;28;20468;-83
2022/10/14 04:53:00;;;;;;;0.50;0.50;;;10.00;99.90;;;;;;5077161;28;20131;-87
2022/10/14 04:55:25;;;;;;;0.50;0.50;;;10.00;99.90;;;;;;5067150;28;20027;-83
2022/10/14 04:57:51;;;;;;;0.60;0.60;;;10.10;99.90;;;;;;5076201;28;20080;-84
2022/10/14 05:00:19;;;;;;;;;;;10.00;99.90;;;;;;5061189;28;20044;-85
2022/10/14 05:02:45;;;;;;;0.30;0.30;;;10.00;99.90;;;;;;5089653;28;19923;-85
2022/10/14 05:05:10;;;;;;;;;;;10.10;99.90;;;;;;5076241;28;20123;-84
2022/10/14 05:07:37;;;;;;;0.38;0.38;;;10.00;99.90;;;;;;5090668;28;20511;-85
2022/10/14 05:10:03;;;;;;;;;;;10.00;99.90;;;;;;5090128;28;20048;-84
2022/10/14 05:12:29;;;;;;;0.43;0.43;;;10.00;99.90;;;;;;5092433;28;19916;-85
2022/10/14 05:14:55;;;;;;;0.60;0.60;;;10.00;99.90;;;;;;5074155;28;20039;-84
2022/10/14 05:17:21;;;;;;;0.50;0.50;;;9.90;99.90;;;;;;5068128;28;20037;-85
2022/10/14 05:19:47;;;;;;;0.50;0.50;;;9.90;99.90;;;;;;5086843;28;20093;-85
2022/10/14 05:22:13;;;;;;;0.40;0.40;;;9.90;99.90;;;;;;5069175;28;20093;-85
2022/10/14 05:24:39;;;;;;;0.73;0.73;;;10.20;99.90;;;;;;5075973;28;20110;-85
2022/10/14 05:27:05;;;;;;;0.57;0.57;;;9.80;99.90;;;;;;5093131;28;20051;-89
2022/10/14 05:29:30;;;;;;;0.40;0.40;;;9.80;99.90;;;;;;5081364;28;20066;-84
2022/10/14 05:31:56;;;;;;;0.40;0.40;;;9.80;99.90;;;;;;5060015;28;20050;-86
2022/10/14 05:34:22;;;;;;;0.43;0.43;;;9.80;99.90;;;;;;5088251;28;20071;-85
2022/10/14 05:36:47;;;;;;;0.50;0.50;;;9.80;99.90;;;;;;5091010;28;20052;-82
2022/10/14 05:39:13;;;;;;;0.50;0.50;;;9.90;99.90;;;;;;5088444;28;20473;-82
2022/10/14 05:41:39;;;;;;;0.65;0.65;;;10.10;99.90;;;;;;5092015;28;20071;-83
2022/10/14 05:44:05;;;;;;;1.13;0.60;;;9.90;99.90;;;;;;5090781;28;20099;-85
2022/10/14 05:46:31;;;;;;;0.57;0.57;;;9.90;99.90;;;;;;5067217;28;20119;-83
2022/10/14 05:48:59;;;;;;;0.50;0.50;;;9.90;99.90;;;;;;5088300;28;20061;-85
2022/10/14 05:51:25;;;;;;;0.63;0.63;;;9.90;99.90;;;;;;5063956;28;20053;-84
2022/10/14 05:53:51;;;;;;;0.40;0.40;;;9.90;99.90;;;;;;5054206;28;20051;-84
2022/10/14 05:56:17;;;;;;;0.38;0.38;;;9.90;99.90;;;;;;5085667;28;20044;-84
2022/10/14 05:58:42;;;;;;;0.40;0.40;;;10.00;99.90;;;;;;5082392;28;20041;-86
2022/10/14 06:01:09;;;;;;;0.60;0.60;;;10.00;99.90;;;;;;5049617;28;20059;-85
2022/10/14 06:03:35;;;;;;;0.40;0.40;;;9.90;99.90;;;;;;5067517;28;20063;-85
2022/10/14 06:06:01;;;;;;;0.60;0.60;;;9.90;99.90;;;;;;5067606;28;20500;-84
2022/10/14 06:08:27;;;;;;;0.30;0.30;;;9.90;99.90;;;;;;5090529;28;20473;-86
2022/10/14 06:10:53;;;;;;;0.63;0.63;;;10.00;99.90;;;;;;5089500;28;20063;-85
2022/10/14 06:13:20;;;;;;;0.40;0.40;;;10.00;99.90;;;;;;5080880;28;20036;-86
2022/10/14 06:15:46;;;;;;;0.50;0.50;;;10.00;99.90;;;;;;5058125;28;20101;-84
2022/10/14 06:18:12;;;;;;;0.43;0.43;;;10.00;99.90;;;;;;5068891;28;20036;-83
2022/10/14 06:20:38;;;;;;;0.95;0.95;;;10.00;99.90;;;;;;5070369;28;20534;-84
2022/10/14 06:23:04;;;;;;;0.60;0.60;;;10.10;99.90;;;;;;5055504;28;20481;-83
2022/10/14 06:25:30;;;;;;;0.50;0.50;;;10.10;99.90;;;;;;5069505;28;20481;-84
2022/10/14 06:28:03;;;;;;;;;;;10.10;99.90;;;;;;5075076;28;20032;-84
2022/10/14 06:30:29;;;;;;;0.50;0.50;;;10.20;99.90;;;;;;5083250;28;19920;-85
2022/10/14 06:32:55;;;;;;;0.47;0.47;;;10.20;99.90;;;;;;5088154;28;20423;-85
2022/10/14 06:35:20;;;;;;;0.43;0.43;;;10.10;99.90;;;;;;5086090;28;20393;-84
2022/10/14 06:37:46;;;;;;;0.40;0.40;;;10.20;99.90;;;;;;5026693;28;20051;-85
2022/10/14 06:40:12;;;;;;;0.60;0.60;;;10.20;99.90;;;;;;5068584;28;20048;-84
2022/10/14 06:42:38;;;;;;;0.65;0.65;;;10.30;99.90;;;;;;5083752;28;20504;-84
2022/10/14 06:45:04;;;;;;;;;;;10.30;99.90;;;;;;5066108;28;20156;-84
2022/10/14 06:47:30;;;;;;;0.43;0.43;;;10.30;99.90;;;;;;5055235;28;19920;-85
2022/10/14 06:49:56;;;;;;;0.40;0.40;;;10.30;99.90;;;;;;5062925;28;20138;-85
2022/10/14 06:52:22;;;;;;;0.30;0.30;;;10.40;99.90;;;;;;5063288;28;20048;-85
2022/10/14 06:54:48;;;;;;;0.50;0.50;;;10.40;99.90;;;;;;5083878;28;20098;-85
2022/10/14 06:57:14;;;;;;;2.90;1.40;;;10.40;99.90;;;;;;5070998;28;20055;-84
2022/10/14 06:59:40;;;;;;;0.68;0.68;;;10.40;99.90;;;;;;5082166;28;20465;-84
2022/10/14 07:02:05;;;;;;;0.55;0.55;;;10.50;99.90;;;;;;5083023;28;20048;-83
2022/10/14 07:04:31;;;;;;;0.38;0.38;;;10.50;99.90;;;;;;5079967;28;20044;-84
2022/10/14 07:06:57;;;;;;;0.40;0.40;;;10.50;99.90;;;;;;5084077;28;20379;-84
2022/10/14 07:09:23;;;;;;;0.50;0.50;;;10.60;99.90;;;;;;5088079;28;20119;-85
2022/10/14 07:11:49;;;;;;;1.27;0.63;;;10.50;99.90;;;;;;5052157;28;20048;-85
2022/10/14 07:14:15;;;;;;;0.82;0.82;;;10.70;99.90;;;;;;5082700;28;20057;-84
2022/10/14 07:16:44;;;;;;;0.88;0.73;;;10.60;99.90;;;;;;5067908;28;20127;-85
2022/10/14 07:19:11;;;;;;;3.50;1.80;;;10.60;99.90;;;;;;5070638;28;20153;-84
2022/10/14 07:21:37;;;;;;;0.50;0.50;;;10.60;99.90;;;;;;5102862;28;20143;-84
2022/10/14 07:24:03;;;;;;;0.43;0.43;;;10.60;99.90;;;;;;5064451;28;20115;-84
2022/10/14 07:26:30;;;;;;;0.75;0.75;;;10.60;99.90;;;;;;5090478;28;20048;-85
2022/10/14 07:28:56;;;;;;;0.40;0.40;;;10.70;99.90;;;;;;5073218;28;20044;-84
2022/10/14 07:31:21;;;;;;;0.45;0.45;;;10.70;99.90;;;;;;5068673;28;20062;-84
2022/10/14 07:33:47;;;;;;;0.40;0.40;;;10.80;99.90;;;;;;5090987;28;20485;-83
2022/10/14 07:36:15;;;;;;;1.40;1.30;;;10.80;99.90;;;;;;5092726;28;20052;-83
2022/10/14 07:38:41;;;;;;;0.50;0.50;;;10.90;99.90;;;;;;5091142;28;20430;-84
2022/10/14 07:41:15;;;;;;;0.55;0.55;;;11.00;99.90;;;;;;5076897;28;20124;-84
2022/10/14 07:44:04;;;;;;;0.32;0.32;;;11.00;99.90;;;;;;5093891;28;20072;-85
2022/10/14 07:46:31;;;;;;;1.05;1.05;;;11.10;99.90;;;;;;5084831;28;20119;-84
2022/10/14 07:49:12;;;;;;;0.60;0.60;;;11.00;99.90;;;;;;5066903;28;20058;-84
2022/10/14 07:51:39;;;;;;;0.50;0.50;;;11.00;99.90;;;;;;5092252;28;20586;-84
2022/10/14 07:54:11;;;;;;;0.28;0.28;;;11.10;99.90;;;;;;5076048;28;20048;-83
2022/10/14 07:56:38;;;;;;;1.52;1.42;;;11.30;99.90;;;;;;5071813;28;20505;-85
2022/10/14 07:59:04;;;;;;;0.90;0.77;;;11.30;99.90;;;;;;5066379;28;20496;-84
2022/10/14 08:01:30;;;;;;;;;;;11.10;99.90;;;;;;5098512;28;20040;-83
2022/10/14 08:03:56;;;;;;;0.60;0.60;;;11.20;99.90;;;;;;5073382;28;20374;-85
2022/10/14 08:06:21;;;;;;;0.50;0.50;;;11.20;99.90;;;;;;5074803;28;20040;-84
2022/10/14 08:08:56;;;;;;;1.20;1.20;;;11.20;99.90;;;;;;5089938;28;20047;-83
2022/10/14 08:11:25;;;;;;;0.73;0.73;;;11.20;99.90;;;;;;5084550;28;20066;-84
2022/10/14 08:13:51;;;;;;;0.50;0.50;;;11.30;99.90;;;;;;5073168;28;20393;-84
2022/10/14 08:16:27;;;;;;;0.93;0.88;;;11.30;99.90;;;;;;5104880;28;20094;-83
2022/10/14 08:18:58;;;;;;;0.35;0.35;;;11.30;99.90;;;;;;5084025;28;20387;-83
2022/10/14 08:21:24;;;;;;;2.58;1.10;;;11.30;99.90;;;;;;5091469;28;20431;-86
2022/10/14 08:23:51;;;;;;;0.65;0.65;;;11.40;99.90;;;;;;5086192;28;20123;-85
2022/10/14 08:26:21;;;;;;;;;;;11.40;99.90;;;;;;5077159;28;20044;-84
2022/10/14 08:28:48;;;;;;;0.50;0.50;;;11.60;99.90;;;;;;5082513;28;19941;-83
2022/10/14 08:31:14;;;;;;;0.38;0.38;;;11.50;99.90;;;;;;5069578;28;20174;-85
2022/10/14 08:33:40;;;;;;;;;;;11.50;99.90;;;;;;5073241;28;20501;-84
2022/10/14 08:36:06;;;;;;;0.30;0.30;;;11.60;99.90;;;;;;5075071;28;19923;-84
2022/10/14 08:38:33;;;;;;;0.63;0.63;;;11.70;99.90;;;;;;5068572;28;20042;-83
2022/10/14 08:41:11;;;;;;;0.40;0.40;;;11.70;99.90;;;;;;5066313;28;20047;-84
2022/10/14 08:44:14;;;;;;;1.25;0.70;;;11.80;99.90;;;;;;5062670;28;20123;-83
2022/10/14 08:46:49;;;;;;;0.82;0.82;;;11.80;99.90;;;;;;5091534;28;20048;-84
2022/10/14 08:49:29;;;;;;;0.60;0.35;;;11.90;99.90;;;;;;5093578;28;20124;-83
2022/10/14 08:52:12;;;;;;;1.20;1.20;;;12.00;99.90;;;;;;5088887;28;20139;-84
2022/10/14 08:54:44;;;;;;;1.40;1.33;;;12.10;99.90;;;;;;5102281;28;20040;-84
2022/10/14 08:57:16;;;;;;;1.33;1.25;;;;;;;;;;5082628;28;20045;-84
2022/10/14 08:59:43;;;;;;;0.40;0.40;;;;;;;;;;5089581;28;20078;-84
2022/10/14 09:02:19;;;;;;;0.45;0.45;;;;;;;;;;5081648;28;20040;-84
2022/10/14 09:04:45;;;;;;;0.30;0.30;;;;;;;;;;5080680;28;20051;-85
2022/10/14 09:07:11;;;;;;;;;;;;;;;;;;5092809;28;20055;-85
2022/10/14 09:09:42;;;;;;;1.00;1.00;;;;;;;;;;5071165;28;19915;-84
2022/10/14 09:12:23;;;;;;;0.50;0.50;;;;;;;;;;5086671;28;20344;-86
2022/10/14 09:15:03;;;;;;;0.40;0.40;;;;;;;;;;5073533;28;20044;-84
2022/10/14 09:17:48;;;;;;;0.55;0.55;;;;;;;;;;5068827;28;20548;-85
2022/10/14 09:20:19;;;;;;;0.98;0.90;;;;;;;;;;5083814;28;20148;-84
2022/10/14 09:22:50;;;;;;;0.20;0.20;;;;;;;;;;5079163;28;20047;-85
2022/10/14 09:25:17;;;;;;;0.30;0.30;;;;;;;;;;5085409;28;20036;-84
2022/10/14 09:27:43;;;;;;;0.50;0.50;;;;;;;;;;5076290;28;20044;-83
2022/10/14 09:30:11;;;;;;;;;;;;;;;;;;5090880;28;20110;-85
2022/10/14 09:32:51;;;;;;;0.65;0.55;;;;;;;;;;5091772;28;19916;-85
2022/10/14 09:35:26;;;;;;;0.65;0.65;;;;;;;;;;5069814;28;20055;-84
2022/10/14 09:37:52;;;;;;;1.02;1.02;;;;;;;;;;5092127;28;20036;-84
2022/10/14 09:40:21;;;;;;;1.35;1.30;;;;;;;;;;5082298;28;20039;-85
2022/10/14 09:42:47;;;;;;;0.40;0.40;;;;;;;;;;5076752;28;20032;-85
2022/10/14 09:45:18;;;;;;;0.22;0.22;;;;;;;;;;5084543;28;20043;-85
2022/10/14 09:47:46;;;;;;;0.32;0.32;;;;;;;;;;5073632;28;20115;-84
2022/10/14 09:50:35;;;;;;;0.30;0.30;;;;;;;;;;5091097;28;20062;-85
2022/10/14 09:53:03;;;;;;;0.38;0.38;;;;;;;;;;5081062;28;20048;-83
2022/10/14 09:55:29;;;;;;;0.68;0.68;;;;;;;;;;5073842;28;20054;-85
2022/10/14 09:58:02;;;;;;;0.30;0.30;;;;;;;;;;5058929;28;20489;-85
2022/10/14 10:00:29;;;;;;;0.73;0.73;;;;;;;;;;5078112;28;20389;-84
2022/10/14 10:02:56;;;;;;;0.73;0.73;;;;;;;;;;5086018;28;20040;-84
2022/10/14 10:05:23;;;;;;;0.65;0.65;;;;;;;;;;5085760;28;20047;-85
2022/10/14 10:08:25;;;;;;;0.30;0.30;;;;;;;;;;5092352;28;20035;-85
2022/10/14 10:10:56;;;;;;;0.98;0.98;;;;;;;;;;5012203;28;20081;-85
2022/10/14 10:13:30;;;;;;;0.50;0.50;;;;;;;;;;5053240;28;20054;-85
2022/10/14 10:16:00;;;;;;;1.67;1.58;;;;;;;;;;5083395;28;20083;-84
2022/10/14 10:18:27;;;;;;;0.50;0.50;;;;;;;;;;5082769;28;20040;-85
2022/10/14 10:21:01;;;;;;;0.68;0.68;;;;;;;;;;5086580;28;20032;-85
2022/10/14 10:23:28;;;;;;;0.50;0.50;;;;;;;;;;5084197;28;20047;-84
2022/10/14 10:25:54;;;;;;;1.38;0.52;;;;;;;;;;5086749;28;20047;-84
2022/10/14 10:28:30;;;;;;;0.88;0.82;;;;;;;;;;5084165;28;20060;-84
2022/10/14 10:31:11;;;;;;;0.30;0.30;;;;;;;;;;5066836;28;20046;-85
2022/10/14 10:33:46;;;;;;;1.17;1.10;;;;;;;;;;5066525;28;20055;-82
2022/10/14 10:36:18;;;;;;;0.20;0.20;;;;;;;;;;5090297;28;20324;-84
2022/10/14 10:38:53;;;;;;;0.20;0.20;;;;;;;;;;5094404;28;20042;-85
2022/10/14 10:41:19;;;;;;;0.57;0.57;;;;;;;;;;5088549;28;20075;-84
2022/10/14 10:44:03;;;;;;;0.52;0.43;;;;;;;;;;5075256;28;20044;-85
2022/10/14 10:46:36;;;;;;;0.20;0.20;;;;;;;;;;5079916;28;20416;-85
2022/10/14 10:49:21;;;;;;;0.25;0.25;;;13.90;99.90;;;;;;5072938;28;20048;-84
2022/10/14 10:51:58;;;;;;;0.60;0.60;;;13.80;99.90;;;;;;5089220;28;20044;-83
2022/10/14 10:54:46;;;;;;;0.30;0.30;;;13.90;99.90;;;;;;5066924;28;20040;-84
2022/10/14 10:57:40;;;;;;;2.17;0.90;;;14.00;99.90;;;;;;5081401;28;20044;-83
2022/10/14 11:00:16;;;;;;;0.30;0.30;;;14.00;99.90;;;;;;5068582;28;20036;-83
2022/10/14 11:03:09;;;;;;;0.93;0.93;;;14.00;99.90;;;;;;5087732;28;20048;-83
2022/10/14 11:06:00;;;;;;;1.30;0.73;;;14.00;99.90;;;;;;5067911;28;20043;-84
2022/10/14 11:12:12;;;;;;;0.60;0.60;;;14.10;99.90;;;;;;5088836;28;20039;-85
2022/10/14 11:15:05;;;;;;;0.30;0.30;;;14.00;99.90;;;;;;5077017;28;20525;-83
2022/10/14 11:18:05;;;;;;;0.40;0.40;;;14.00;99.90;;;;;;5085646;28;20045;-83
2022/10/14 11:20:49;;;;;;;0.30;0.30;;;13.90;99.90;;;;;;5079949;28;20044;-83
2022/10/14 11:23:58;;;;;;;0.57;0.57;;;13.80;99.90;;;;;;5094775;28;20380;-83
2022/10/14 11:26:45;;;;;;;2.17;2.08;;;13.80;99.90;;;;;;5085891;28;20100;-85
2022/10/14 11:29:18;;;;;;;0.70;0.70;;;13.70;99.90;;;;;;5092353;28;20055;-84
2022/10/14 11:31:57;;;;;;;1.10;1.10;;;13.60;99.90;;;;;;5104115;28;20067;-84
2022/10/14 11:34:49;;;;;;;0.25;0.25;;;13.70;99.90;;;;;;5073638;28;20064;-83
2022/10/14 11:37:37;;;;;;;0.30;0.30;;;13.70;99.90;;;;;;5090999;28;20544;-83
2022/10/14 11:40:23;;;;;;;1.08;0.60;;;13.80;99.90;;;;;;5086362;28;20049;-83
2022/10/14 11:43:05;;;;;;;0.52;0.52;;;13.80;99.90;;;;;;5089847;28;20040;-83
2022/10/14 11:45:37;;;;;;;1.35;1.30;;;13.90;99.90;;;;;;5092353;28;20123;-84
2022/10/14 11:48:28;;;;;;;0.20;0.20;;;13.90;99.90;;;;;;5088217;28;20115;-83
2022/10/14 11:51:08;;;;;;;0.20;0.20;;;13.90;99.90;;;;;;5105179;28;20652;-82
2022/10/14 11:54:01;;;;;;;0.30;0.30;;;13.90;99.90;;;;;;5071182;28;20104;-82
2022/10/14 11:57:03;;;;;;;0.20;0.20;;;14.00;99.90;;;;;;5082898;28;20101;-83
2022/10/14 11:59:54;;;;;;;0.52;0.52;;;13.80;99.90;;;;;;5093629;28;20043;-83
2022/10/14 12:02:57;;;;;;;1.10;0.55;;;13.80;99.90;;;;;;5080445;28;20039;-83
2022/10/14 12:05:50;;;;;;;0.30;0.30;;;13.80;99.90;;;;;;5086024;28;20044;-83
2022/10/14 12:08:39;;;;;;;0.30;0.30;;;14.00;99.90;;;;;;5065146;28;20469;-82
2022/10/14 12:11:25;;;;;;;0.43;0.43;;;14.00;99.90;;;;;;5079104;28;20053;-82
2022/10/14 12:13:56;;;;;;;1.08;1.08;;;14.20;99.90;;;;;;5061726;28;20037;-83
2022/10/14 12:16:23;;;;;;;0.30;0.30;;;14.20;99.90;;;;;;5078817;28;20067;-82
2022/10/14 12:18:54;;;;;;;0.20;0.20;;;14.30;99.90;;;;;;5068666;28;20039;-82
2022/10/14 12:21:29;;;;;;;0.30;0.30;;;14.10;99.90;;;;;;5089447;28;20040;-82
2022/10/14 12:24:14;;;;;;;0.40;0.40;;;14.10;99.90;;;;;;5091364;28;20040;-81
2022/10/14 12:27:03;;;;;;;0.65;0.38;;;13.90;99.90;;;;;;5071137;28;20036;-83
2022/10/14 12:29:48;;;;;;;0.63;0.63;;;13.90;99.90;;;;;;5065233;28;20048;-83
2022/10/14 12:32:24;;;;;;;0.30;0.30;;;13.80;99.90;;;;;;5072969;28;20558;-82
2022/10/14 12:34:55;;;;;;;0.40;0.40;;;13.90;99.90;;;;;;5080193;28;20113;-83
2022/10/14 12:37:23;;;;;;;0.98;0.98;;;13.90;99.90;;;;;;5064117;28;20048;-83
2022/10/14 12:40:12;;;;;;;0.30;0.30;;;14.00;99.90;;;;;;5068969;28;20062;-83
2022/10/14 12:42:41;;;;;;;0.30;0.30;;;14.00;99.90;;;;;;5069884;28;20048;-83
2022/10/14 12:45:20;;;;;;;0.20;0.20;;;14.00;99.90;;;;;;5080737;28;20086;-83
2022/10/14 12:47:46;;;;;;;0.57;0.57;;;14.00;99.90;;;;;;5083995;28;20070;-82
2022/10/14 12:50:16;;;;;;;0.50;0.50;;;14.00;99.90;;;;;;5068323;28;20039;-83
2022/10/14 12:53:01;;;;;;;0.68;0.68;;;14.00;99.90;;;;;;5079915;28;20099;-83
2022/10/14 12:55:28;;;;;;;0.30;0.30;;;14.00;99.90;;;;;;5068116;28;20048;-83
2022/10/14 12:57:58;;;;;;;0.95;0.47;;;14.00;99.90;;;;;;5064666;28;20043;-83
2022/10/14 13:00:23;;;;;;;0.40;0.40;;;13.90;99.90;;;;;;5050891;28;20792;-82
2022/10/14 13:02:57;;;;;;;2.47;0.90;;;13.90;99.90;;;;;;5050332;28;21632;-81
2022/10/14 13:05:34;;;;;;;0.40;0.40;;;13.90;99.90;;;;;;5071774;28;20100;-83
2022/10/14 13:08:10;;;;;;;0.20;0.20;;;13.80;99.90;;;;;;5072963;28;20048;-83
2022/10/14 13:10:39;;;;;;;0.30;0.30;;;13.80;99.90;;;;;;5075145;28;20059;-82
2022/10/14 13:13:39;;;;;;;0.30;0.30;;;13.70;99.90;;;;;;5073002;28;20565;-82
2022/10/14 13:16:29;;;;;;;0.25;0.25;;;13.70;99.90;;;;;;5086160;28;20404;-83
2022/10/14 13:18:58;;;;;;;0.45;0.45;;;13.70;99.90;;;;;;5075213;28;20439;-82
2022/10/14 13:21:33;;;;;;;0.30;0.30;;;13.70;99.90;;;;;;5075782;28;20047;-82
2022/10/14 13:24:14;;;;;;;0.30;0.30;;;13.70;99.90;;;;;;5092239;28;20060;-83
2022/10/14 13:26:53;;;;;;;0.25;0.25;;;13.70;99.90;;;;;;5081890;28;20400;-83
2022/10/14 13:29:18;;;;;;;0.47;0.47;;;13.70;99.90;;;;;;5080676;28;20048;-82
2022/10/14 13:32:08;;;;;;;0.38;0.38;;;13.70;99.90;;;;;;5076095;28;20036;-82
2022/10/14 13:34:48;;;;;;;0.30;0.30;;;13.80;99.90;;;;;;5073980;28;20186;-83